Mentor, Kentucky
Current Conditions -  °F | °C
As of 10:53 AM on Friday 31 Oct 2014 (Local Time) from KLUK Reporting Station
Overcast Overcast  
Wind Chill: 44°   Ceiling: 5000
Heat Index: 47°   Visibility: 8mi
Dew Point: 43°   Wind: 6mph
Humidity: 86%   Direction: 190°S
Pressure: 29.97"   Gusts: NA
Location:  38.8948°N, 84.2968°W
Report Text: KLUK 311453Z 19005KT 8SM OVC050 08/06 A2997 RMK AO2 SLP151 T00830061 58007
Loading
Personal Weather Stations






























Interactive Weather Map
Tropical Storm Tracking
New forecast layout! Learn more

10-Day Weather Forecast

Advertisements
Track Severe Weather on mobile